Hedlanda Airport


Codes: ESNC/
Name: Hedlanda Airport
City: Hede
Country: Sweden
Elevation: 1460 ft.
Wikipedia:

Photos at Hedlanda Airport


   Photos courtesy of SpottingLog. You can add your own sightings and photos by signing up for a free trial today.



No photos found.

Weather at Hedlanda Airport


Time (UTC)DescriptionTempratureWindCloud coverageVisibilityPressureHumidity
13-Jun-2024 03:00Overcast Clouds7°C2 mph, NE95%10000m1010hPa74%
13-Jun-2024 06:00Broken Clouds10°C2 mph, E75%10000m1010hPa63%
13-Jun-2024 09:00Scattered Clouds15°C9 mph, E41%10000m1009hPa45%
13-Jun-2024 12:00Broken Clouds14°C9 mph, SE68%10000m1008hPa48%
13-Jun-2024 15:00Overcast Clouds15°C7 mph, SE98%10000m1008hPa47%
13-Jun-2024 18:00Overcast Clouds14°C4 mph, S95%10000m1008hPa56%
13-Jun-2024 21:00Overcast Clouds9°C2 mph, E85%10000m1009hPa78%
14-Jun-2024 00:00Light Rain9°C4 mph, NE87%10000m1010hPa88%
14-Jun-2024 03:00Light Rain9°C2 mph, E100%10000m1010hPa90%
14-Jun-2024 06:00Light Rain11°C2 mph, SE96%10000m1009hPa78%
14-Jun-2024 09:00Light Rain13°C4 mph, SE67%10000m1009hPa67%
14-Jun-2024 12:00Light Rain16°C2 mph, SE72%10000m1009hPa53%
14-Jun-2024 15:00Light Rain14°C7 mph, S91%10000m1010hPa68%
14-Jun-2024 18:00Light Rain13°C4 mph, SW88%10000m1010hPa77%
14-Jun-2024 21:00Light Rain9°C4 mph, SW84%10000m1011hPa88%
15-Jun-2024 00:00Broken Clouds7°C4 mph, SW61%10000m1012hPa90%
15-Jun-2024 03:00Scattered Clouds7°C4 mph, SW27%10000m1012hPa87%
15-Jun-2024 06:00Scattered Clouds12°C4 mph, S39%10000m1011hPa69%
15-Jun-2024 09:00Broken Clouds15°C9 mph, S83%10000m1010hPa47%
15-Jun-2024 12:00Overcast Clouds16°C9 mph, S91%10000m1010hPa46%
15-Jun-2024 15:00Light Rain15°C13 mph, S84%10000m1010hPa59%
15-Jun-2024 18:00Overcast Clouds12°C9 mph, S93%10000m1010hPa74%
15-Jun-2024 21:00Light Rain10°C4 mph, E100%10000m1009hPa92%
16-Jun-2024 00:00Light Rain10°C9 mph, SE100%10000m1008hPa94%
16-Jun-2024 03:00Moderate Rain10°C7 mph, SE100%10000m1008hPa98%
16-Jun-2024 06:00Light Rain10°C4 mph, N100%0m1008hPa99%
16-Jun-2024 09:00Light Rain15°C9 mph, S95%10000m1008hPa67%
16-Jun-2024 12:00Overcast Clouds18°C13 mph, S90%10000m1008hPa42%
16-Jun-2024 15:00Overcast Clouds18°C9 mph, SW94%10000m1008hPa39%
16-Jun-2024 18:00Overcast Clouds16°C11 mph, S90%10000m1009hPa50%
16-Jun-2024 21:00Overcast Clouds11°C4 mph, S98%10000m1011hPa78%
17-Jun-2024 00:00Overcast Clouds9°C7 mph, S96%10000m1013hPa94%
17-Jun-2024 03:00Clear Sky8°C4 mph, S8%10000m1014hPa96%
17-Jun-2024 06:00Scattered Clouds12°C9 mph, SW46%10000m1013hPa66%
17-Jun-2024 09:00Overcast Clouds15°C11 mph, S96%10000m1013hPa56%
17-Jun-2024 12:00Broken Clouds18°C13 mph, SW54%10000m1013hPa39%
17-Jun-2024 15:00Broken Clouds18°C13 mph, S56%10000m1013hPa45%
17-Jun-2024 18:00Broken Clouds16°C9 mph, S52%10000m1013hPa51%
17-Jun-2024 21:00Overcast Clouds11°C4 mph, S88%10000m1014hPa76%
18-Jun-2024 00:00Overcast Clouds11°C7 mph, S94%10000m1014hPa88%